createdAt,value
2018-11-07T00:00:23.789Z,88.60
2018-11-07T00:02:51.985Z,88.40
2018-11-07T00:05:20.433Z,87.70
2018-11-07T00:07:48.625Z,87.80
2018-11-07T00:10:16.686Z,87.60
2018-11-07T00:12:44.824Z,87.40
2018-11-07T00:15:14.026Z,87.30
2018-11-07T00:17:42.413Z,87.30
2018-11-07T00:20:11.434Z,87.30
2018-11-07T00:22:39.595Z,87.60
2018-11-07T00:25:08.806Z,88.00
2018-11-07T00:27:36.909Z,87.60
2018-11-07T00:30:06.316Z,88.20
2018-11-07T00:32:34.411Z,87.70
2018-11-07T00:35:02.579Z,87.70
2018-11-07T00:37:30.623Z,87.80
2018-11-07T00:39:58.761Z,87.70
2018-11-07T00:42:26.945Z,87.90
2018-11-07T00:44:55.221Z,87.90
2018-11-07T00:47:23.324Z,88.10
2018-11-07T00:49:51.414Z,88.30
2018-11-07T00:52:19.530Z,88.20
2018-11-07T00:54:47.646Z,88.20
2018-11-07T00:57:15.750Z,87.60
2018-11-07T00:59:44.166Z,88.60
2018-11-07T01:02:12.273Z,88.70
2018-11-07T01:04:40.386Z,88.90
2018-11-07T01:07:08.523Z,89.10
2018-11-07T01:09:36.695Z,89.20
2018-11-07T01:12:05.061Z,89.20
2018-11-07T01:14:33.557Z,89.30
2018-11-07T01:17:01.723Z,89.20
2018-11-07T01:19:29.849Z,89.00
2018-11-07T01:21:57.967Z,89.00
2018-11-07T01:24:26.091Z,88.90
2018-11-07T01:26:54.218Z,89.00
2018-11-07T01:29:22.358Z,89.10
2018-11-07T01:31:50.483Z,89.40
2018-11-07T01:34:18.602Z,89.20
2018-11-07T01:36:46.694Z,89.30
2018-11-07T01:39:14.838Z,89.60
2018-11-07T01:41:42.980Z,89.90
2018-11-07T01:44:11.099Z,90.00
2018-11-07T01:46:39.233Z,90.10
2018-11-07T01:49:07.350Z,90.10
2018-11-07T01:51:35.475Z,90.20
2018-11-07T01:54:03.601Z,90.30
2018-11-07T01:56:31.742Z,90.40
2018-11-07T01:58:59.846Z,90.50
2018-11-07T02:01:27.978Z,90.60
2018-11-07T02:03:56.088Z,90.60
2018-11-07T02:06:24.217Z,90.70
2018-11-07T02:08:52.318Z,90.80
2018-11-07T02:11:20.434Z,90.80
2018-11-07T02:13:48.573Z,90.80
2018-11-07T02:16:16.693Z,90.90
2018-11-07T02:18:44.830Z,90.90
2018-11-07T02:21:12.997Z,91.00
2018-11-07T02:23:41.117Z,91.00
2018-11-07T02:26:09.227Z,91.10
2018-11-07T02:28:37.340Z,91.20
2018-11-07T02:31:05.566Z,91.20
2018-11-07T02:33:33.699Z,91.20
2018-11-07T02:36:02.172Z,91.40
2018-11-07T02:38:31.272Z,91.60
2018-11-07T02:40:59.402Z,91.70
2018-11-07T02:43:27.554Z,91.70
2018-11-07T02:45:55.690Z,91.70
2018-11-07T02:48:24.166Z,91.70
2018-11-07T02:50:52.287Z,91.70
2018-11-07T02:53:20.479Z,91.70
2018-11-07T02:55:48.631Z,91.70
2018-11-07T02:58:16.759Z,91.70
2018-11-07T03:00:44.919Z,91.70
2018-11-07T03:03:13.071Z,91.70
2018-11-07T03:05:41.221Z,91.60
2018-11-07T03:08:09.747Z,91.60
2018-11-07T03:10:37.904Z,91.60
2018-11-07T03:13:06.020Z,91.60
2018-11-07T03:15:34.200Z,91.70
2018-11-07T03:18:02.362Z,91.70
2018-11-07T03:20:30.488Z,91.60
2018-11-07T03:22:58.646Z,91.60
2018-11-07T03:25:26.814Z,91.60
2018-11-07T03:27:54.940Z,91.50
2018-11-07T03:30:23.088Z,91.40
2018-11-07T03:32:51.244Z,91.30
2018-11-07T03:35:24.847Z,91.20
2018-11-07T03:37:53.187Z,91.20
2018-11-07T03:40:21.355Z,91.10
2018-11-07T03:42:49.520Z,91.00
2018-11-07T03:45:17.668Z,90.90
2018-11-07T03:47:45.777Z,91.00
2018-11-07T03:50:13.915Z,91.00
2018-11-07T03:52:42.043Z,91.00
2018-11-07T03:55:10.221Z,90.80
2018-11-07T03:57:38.409Z,90.70
2018-11-07T04:00:08.265Z,90.70
2018-11-07T04:02:36.370Z,90.70
2018-11-07T04:05:05.737Z,90.70
2018-11-07T04:07:34.206Z,90.70
2018-11-07T04:10:02.323Z,90.60
2018-11-07T04:12:30.463Z,90.60
2018-11-07T04:14:58.606Z,90.50
2018-11-07T04:17:26.759Z,90.50
2018-11-07T04:19:54.921Z,90.60
2018-11-07T04:22:23.068Z,90.50
2018-11-07T04:24:51.225Z,90.50
2018-11-07T04:27:19.388Z,90.60
2018-11-07T04:29:47.565Z,90.60
2018-11-07T04:32:15.742Z,90.70
2018-11-07T04:34:43.918Z,90.70
2018-11-07T04:37:12.077Z,90.90
2018-11-07T04:39:40.268Z,91.00
2018-11-07T04:42:08.424Z,91.00
2018-11-07T04:44:36.586Z,91.00
2018-11-07T04:47:05.079Z,91.10
2018-11-07T04:49:33.308Z,91.20
2018-11-07T04:52:01.440Z,91.20
2018-11-07T04:54:29.609Z,91.40
2018-11-07T04:56:57.944Z,91.40
2018-11-07T04:59:26.145Z,91.40
2018-11-07T05:01:54.351Z,91.50
2018-11-07T05:04:22.499Z,91.60
2018-11-07T05:06:50.996Z,91.60
2018-11-07T05:09:19.138Z,91.70
2018-11-07T05:11:47.307Z,91.70
2018-11-07T05:14:15.461Z,91.70
2018-11-07T05:16:43.601Z,91.60
2018-11-07T05:19:12.056Z,91.60
2018-11-07T05:21:40.382Z,91.70
2018-11-07T05:24:08.530Z,91.80
2018-11-07T05:26:36.692Z,91.80
2018-11-07T05:29:04.830Z,92.00
2018-11-07T05:31:32.992Z,92.20
2018-11-07T05:34:01.153Z,92.20
2018-11-07T05:36:29.567Z,92.10
2018-11-07T05:38:57.729Z,92.10
2018-11-07T05:41:25.871Z,92.10
2018-11-07T05:43:54.037Z,92.10
2018-11-07T05:46:22.589Z,92.10
2018-11-07T05:48:50.781Z,92.10
2018-11-07T05:51:18.908Z,92.00
2018-11-07T05:53:47.419Z,92.20
2018-11-07T05:56:15.612Z,92.20
2018-11-07T05:58:43.788Z,92.10
2018-11-07T06:01:11.939Z,92.10
2018-11-07T06:03:40.263Z,92.10
2018-11-07T06:06:08.422Z,92.10
2018-11-07T06:08:36.579Z,92.10
2018-11-07T06:11:05.246Z,92.00
2018-11-07T06:13:33.408Z,91.80
2018-11-07T06:16:01.609Z,91.80
2018-11-07T06:18:29.734Z,91.70
2018-11-07T06:20:57.894Z,91.60
2018-11-07T06:23:26.041Z,91.60
2018-11-07T06:25:54.188Z,91.50
2018-11-07T06:28:22.331Z,91.50
2018-11-07T06:30:50.450Z,91.50
2018-11-07T06:33:18.626Z,91.60
2018-11-07T06:35:46.765Z,91.70
2018-11-07T06:38:15.247Z,92.00
2018-11-07T06:40:43.384Z,92.00
2018-11-07T06:43:11.545Z,92.10
2018-11-07T06:45:39.712Z,92.20
2018-11-07T06:48:07.983Z,92.30
2018-11-07T06:50:36.137Z,92.30
2018-11-07T06:53:04.514Z,92.70
2018-11-07T06:55:32.663Z,92.40
2018-11-07T06:58:00.860Z,92.40
2018-11-07T07:00:33.462Z,92.40
2018-11-07T07:03:02.706Z,92.30
2018-11-07T07:05:30.857Z,92.20
2018-11-07T07:07:59.376Z,92.20
2018-11-07T07:10:27.548Z,92.10
2018-11-07T07:12:55.723Z,92.00
2018-11-07T07:15:23.876Z,91.80
2018-11-07T07:17:52.169Z,91.60
2018-11-07T07:20:21.092Z,91.30
2018-11-07T07:22:49.702Z,91.30
2018-11-07T07:25:18.182Z,91.20
2018-11-07T07:27:47.039Z,91.10
2018-11-07T07:30:16.481Z,91.00
2018-11-07T07:32:45.719Z,90.90
2018-11-07T07:35:14.658Z,90.70
2018-11-07T07:37:42.839Z,90.50
2018-11-07T07:40:12.336Z,90.50
2018-11-07T07:42:41.427Z,90.40
2018-11-07T07:45:11.975Z,90.20
2018-11-07T07:47:40.868Z,90.20
2018-11-07T07:50:10.727Z,90.00
2018-11-07T07:52:39.153Z,89.80
2018-11-07T07:55:07.947Z,89.70
2018-11-07T07:57:36.608Z,89.80
2018-11-07T08:00:05.979Z,89.20
2018-11-07T08:02:34.194Z,88.60
2018-11-07T08:05:02.415Z,88.10
2018-11-07T08:07:30.592Z,87.60
2018-11-07T08:09:58.731Z,87.20
2018-11-07T08:12:26.900Z,86.90
2018-11-07T08:14:55.069Z,86.70
2018-11-07T08:17:23.602Z,86.50
2018-11-07T08:19:51.766Z,86.10
2018-11-07T08:22:19.907Z,85.50
2018-11-07T08:24:48.118Z,85.20
2018-11-07T08:27:16.282Z,85.00
2018-11-07T08:29:44.415Z,84.30
2018-11-07T08:32:12.958Z,83.60
2018-11-07T08:34:41.176Z,83.00
2018-11-07T08:37:09.363Z,82.70
2018-11-07T08:39:37.626Z,82.20
2018-11-07T08:42:05.811Z,81.90
2018-11-07T08:44:33.986Z,81.40
2018-11-07T08:47:02.504Z,81.30
2018-11-07T08:49:30.708Z,81.30
2018-11-07T08:51:58.844Z,80.70
2018-11-07T08:54:27.043Z,80.60
2018-11-07T08:56:55.179Z,80.20
2018-11-07T08:59:23.664Z,79.80
2018-11-07T09:01:51.803Z,79.40
2018-11-07T09:04:19.960Z,79.00
2018-11-07T09:06:48.174Z,78.50
2018-11-07T09:09:16.349Z,77.70
2018-11-07T09:11:44.907Z,76.80
2018-11-07T09:14:13.184Z,76.70
2018-11-07T09:16:41.576Z,75.70
2018-11-07T09:19:09.897Z,74.80
2018-11-07T09:21:38.052Z,74.50
2018-11-07T09:24:06.429Z,73.60
2018-11-07T09:26:34.564Z,73.00
2018-11-07T09:29:02.793Z,72.60
2018-11-07T09:31:30.929Z,71.90
2018-11-07T09:33:59.436Z,71.50
2018-11-07T09:36:27.601Z,71.20
2018-11-07T09:38:55.764Z,70.30
2018-11-07T09:41:24.014Z,70.00
2018-11-07T09:43:52.197Z,69.50
2018-11-07T09:46:20.406Z,69.30
2018-11-07T09:48:48.623Z,68.50
2018-11-07T09:51:16.798Z,68.30
2018-11-07T09:53:45.069Z,67.50
2018-11-07T09:56:13.194Z,67.20
2018-11-07T09:58:41.354Z,67.00
2018-11-07T10:01:09.920Z,65.80
2018-11-07T10:03:38.098Z,65.70
2018-11-07T10:06:06.345Z,65.50
2018-11-07T10:08:34.559Z,64.90
2018-11-07T10:11:02.748Z,64.50
2018-11-07T10:13:31.005Z,64.20
2018-11-07T10:15:59.198Z,64.10
2018-11-07T10:18:27.406Z,63.70
2018-11-07T10:20:55.527Z,62.70
2018-11-07T10:23:23.782Z,63.10
2018-11-07T10:25:51.910Z,62.10
2018-11-07T10:28:20.284Z,61.10
2018-11-07T10:30:48.210Z,60.40
2018-11-07T10:33:16.364Z,60.10
2018-11-07T10:35:44.515Z,59.50
2018-11-07T10:38:12.789Z,58.90
2018-11-07T10:40:40.858Z,58.60
2018-11-07T10:43:09.020Z,58.40
2018-11-07T10:45:37.176Z,58.10
2018-11-07T10:48:05.892Z,58.10
2018-11-07T10:50:34.041Z,57.40
2018-11-07T10:53:02.208Z,57.10
2018-11-07T10:55:30.368Z,56.80
2018-11-07T10:57:58.544Z,56.70
2018-11-07T11:00:32.148Z,56.00
2018-11-07T11:03:07.570Z,56.30
2018-11-07T11:05:35.883Z,56.40
2018-11-07T11:08:04.060Z,55.80
2018-11-07T11:10:32.240Z,55.40
2018-11-07T11:13:00.856Z,56.40
2018-11-07T11:15:28.984Z,55.60
2018-11-07T11:17:57.137Z,55.60
2018-11-07T11:20:25.320Z,55.00
2018-11-07T11:22:54.553Z,54.80
2018-11-07T11:25:22.760Z,54.80
2018-11-07T11:27:50.940Z,55.10
2018-11-07T11:30:19.108Z,55.60
2018-11-07T11:32:47.463Z,56.10
2018-11-07T11:35:15.776Z,57.10
2018-11-07T11:37:43.914Z,57.50
2018-11-07T11:40:14.020Z,57.10
2018-11-07T11:42:43.041Z,57.00
2018-11-07T11:45:12.854Z,57.00
2018-11-07T11:47:41.430Z,55.50
2018-11-07T11:50:13.097Z,55.30
2018-11-07T11:52:42.043Z,55.20
2018-11-07T11:55:10.771Z,54.90
2018-11-07T11:57:39.146Z,54.90
2018-11-07T12:00:10.042Z,54.70
2018-11-07T12:02:37.998Z,54.50
2018-11-07T12:05:07.782Z,54.50
2018-11-07T12:07:35.948Z,55.80
2018-11-07T12:10:04.445Z,55.90
2018-11-07T12:12:32.603Z,55.40
2018-11-07T12:15:00.771Z,55.40
2018-11-07T12:17:29.012Z,55.60
2018-11-07T12:19:57.149Z,55.80
2018-11-07T12:22:25.281Z,55.90
2018-11-07T12:24:53.713Z,56.00
2018-11-07T12:27:21.838Z,56.00
2018-11-07T12:29:49.969Z,56.20
2018-11-07T12:32:18.163Z,56.40
2018-11-07T12:34:46.324Z,56.40
2018-11-07T12:37:14.474Z,56.30
2018-11-07T12:39:42.632Z,56.40
2018-11-07T12:42:10.777Z,56.40
2018-11-07T12:44:38.939Z,56.70
2018-11-07T12:47:07.072Z,56.50
2018-11-07T12:49:35.244Z,56.70
2018-11-07T12:52:03.367Z,56.80
2018-11-07T12:54:31.519Z,56.70
2018-11-07T12:57:00.027Z,56.70
2018-11-07T12:59:28.113Z,56.30
2018-11-07T13:01:56.393Z,56.60
2018-11-07T13:04:24.763Z,56.50
2018-11-07T13:06:53.689Z,56.50
2018-11-07T13:09:21.791Z,56.90
2018-11-07T13:11:49.965Z,56.90
2018-11-07T13:14:18.389Z,56.90
2018-11-07T13:16:46.545Z,56.60
2018-11-07T13:19:14.738Z,56.90
2018-11-07T13:21:42.959Z,56.60
2018-11-07T13:24:11.225Z,57.20
2018-11-07T13:26:39.370Z,57.00
2018-11-07T13:29:07.517Z,57.00
2018-11-07T13:31:35.642Z,57.10
2018-11-07T13:34:03.822Z,57.10
2018-11-07T13:36:31.984Z,57.30
2018-11-07T13:39:00.346Z,57.50
2018-11-07T13:41:28.261Z,57.10
2018-11-07T13:43:56.385Z,56.90
2018-11-07T13:46:24.561Z,57.00
2018-11-07T13:48:52.692Z,56.80
2018-11-07T13:51:20.815Z,57.30
2018-11-07T13:53:48.981Z,57.10
2018-11-07T13:56:17.135Z,57.40
2018-11-07T13:58:45.275Z,58.00
2018-11-07T14:01:13.443Z,58.10
2018-11-07T14:03:41.600Z,58.10
2018-11-07T14:06:10.117Z,58.30
2018-11-07T14:08:38.270Z,58.50
2018-11-07T14:11:06.606Z,58.70
2018-11-07T14:13:35.076Z,59.00
2018-11-07T14:16:03.325Z,59.20
2018-11-07T14:18:31.380Z,59.30
2018-11-07T14:20:59.523Z,59.20
2018-11-07T14:23:27.670Z,59.30
2018-11-07T14:25:55.827Z,59.50
2018-11-07T14:28:24.172Z,59.30
2018-11-07T14:30:52.209Z,59.30
2018-11-07T14:33:20.464Z,59.40
2018-11-07T14:35:48.615Z,59.50
2018-11-07T14:38:16.780Z,59.60
2018-11-07T14:40:44.965Z,59.50
2018-11-07T14:43:13.124Z,59.50
2018-11-07T14:45:41.251Z,59.80
2018-11-07T14:48:09.465Z,60.00
2018-11-07T14:50:37.906Z,60.00
2018-11-07T14:53:06.594Z,60.10
2018-11-07T14:55:34.780Z,59.90
2018-11-07T14:58:03.178Z,60.20
2018-11-07T15:00:31.381Z,61.10
2018-11-07T15:02:59.499Z,60.40
2018-11-07T15:05:27.789Z,60.70
2018-11-07T15:07:55.818Z,60.70
2018-11-07T15:10:23.974Z,61.00
2018-11-07T15:12:52.180Z,60.90
2018-11-07T15:15:20.358Z,61.00
2018-11-07T15:17:48.524Z,60.90
2018-11-07T15:20:17.549Z,61.10
2018-11-07T15:22:45.828Z,61.20
2018-11-07T15:25:15.024Z,61.30
2018-11-07T15:27:44.310Z,61.30
2018-11-07T15:30:13.566Z,60.90
2018-11-07T15:32:42.488Z,61.40
2018-11-07T15:35:11.094Z,61.50
2018-11-07T15:37:39.697Z,61.40
2018-11-07T15:40:09.716Z,61.50
2018-11-07T15:42:38.913Z,61.20
2018-11-07T15:45:10.866Z,61.00
2018-11-07T15:47:39.915Z,61.50
2018-11-07T15:50:14.008Z,61.70
2018-11-07T15:52:44.250Z,61.50
2018-11-07T15:55:13.314Z,61.60
2018-11-07T15:57:42.382Z,61.70
2018-11-07T16:00:14.212Z,61.40
2018-11-07T16:02:43.565Z,61.40
2018-11-07T16:05:13.806Z,59.80
2018-11-07T16:07:42.869Z,60.00
2018-11-07T16:10:13.154Z,59.80
2018-11-07T16:12:42.830Z,59.30
2018-11-07T16:15:12.955Z,58.70
2018-11-07T16:17:41.667Z,58.40
2018-11-07T16:20:14.980Z,58.20
2018-11-07T16:22:44.228Z,58.40
2018-11-07T16:25:12.349Z,58.30
2018-11-07T16:27:41.319Z,59.00
2018-11-07T16:30:11.892Z,58.50
2018-11-07T16:32:40.136Z,58.50
2018-11-07T16:35:09.260Z,58.40
2018-11-07T16:37:37.463Z,58.40
2018-11-07T16:40:08.055Z,58.60
2018-11-07T16:42:36.266Z,58.60
2018-11-07T16:45:05.272Z,58.80
2018-11-07T16:47:33.499Z,59.10
2018-11-07T16:50:01.619Z,59.50
2018-11-07T16:52:29.894Z,59.90
2018-11-07T16:54:57.938Z,60.30
2018-11-07T16:57:26.168Z,60.90
2018-11-07T16:59:54.357Z,61.30
2018-11-07T17:02:22.519Z,62.00
2018-11-07T17:04:50.691Z,62.50
2018-11-07T17:07:18.936Z,62.20
2018-11-07T17:09:47.115Z,62.20
2018-11-07T17:12:15.344Z,62.80
2018-11-07T17:14:43.548Z,62.80
2018-11-07T17:17:11.703Z,62.80
2018-11-07T17:19:39.845Z,63.10
2018-11-07T17:22:08.001Z,63.40
2018-11-07T17:24:36.273Z,64.00
2018-11-07T17:27:04.321Z,64.10
2018-11-07T17:29:32.592Z,64.20
2018-11-07T17:32:00.900Z,64.50
2018-11-07T17:34:29.012Z,64.70
2018-11-07T17:36:57.199Z,64.80
2018-11-07T17:39:25.414Z,65.00
2018-11-07T17:41:53.588Z,65.20
2018-11-07T17:44:21.783Z,65.60
2018-11-07T17:46:49.930Z,65.90
2018-11-07T17:49:18.080Z,66.70
2018-11-07T17:51:46.259Z,66.20
2018-11-07T17:54:14.461Z,66.30
2018-11-07T17:56:42.712Z,66.40
2018-11-07T17:59:10.797Z,66.50
2018-11-07T18:01:38.931Z,66.70
2018-11-07T18:04:07.540Z,66.70
2018-11-07T18:06:35.704Z,67.10
2018-11-07T18:09:04.870Z,67.30
2018-11-07T18:11:33.073Z,67.40
2018-11-07T18:14:01.219Z,67.10
2018-11-07T18:16:29.419Z,66.90
2018-11-07T18:18:57.712Z,67.10
2018-11-07T18:21:26.098Z,67.30
2018-11-07T18:23:54.349Z,68.00
2018-11-07T18:26:22.480Z,67.70
2018-11-07T18:28:50.682Z,67.80
2018-11-07T18:31:18.908Z,68.10
2018-11-07T18:33:47.369Z,68.40
2018-11-07T18:36:15.527Z,68.50
2018-11-07T18:38:43.668Z,68.70
2018-11-07T18:41:11.933Z,68.80
2018-11-07T18:43:40.070Z,68.90
2018-11-07T18:46:08.280Z,69.10
2018-11-07T18:48:36.820Z,69.60
2018-11-07T18:51:05.153Z,69.60
2018-11-07T18:53:33.315Z,69.70
2018-11-07T18:56:01.519Z,69.90
2018-11-07T18:58:29.715Z,69.90
2018-11-07T19:00:57.859Z,70.00
2018-11-07T19:03:26.036Z,70.20
2018-11-07T19:05:54.193Z,70.30
2018-11-07T19:08:22.368Z,70.60
2018-11-07T19:10:50.531Z,70.60
2018-11-07T19:13:18.729Z,70.50
2018-11-07T19:15:46.872Z,70.90
2018-11-07T19:18:15.048Z,71.00
2018-11-07T19:20:43.240Z,71.20
2018-11-07T19:23:11.390Z,71.40
2018-11-07T19:25:39.535Z,72.20
2018-11-07T19:28:07.727Z,71.80
2018-11-07T19:30:35.855Z,71.80
2018-11-07T19:33:04.104Z,71.80
2018-11-07T19:35:32.178Z,71.90
2018-11-07T19:38:00.633Z,72.00
2018-11-07T19:40:28.783Z,72.10
2018-11-07T19:42:56.977Z,72.50
2018-11-07T19:45:25.409Z,72.40
2018-11-07T19:47:53.552Z,72.60
2018-11-07T19:50:22.178Z,72.90
2018-11-07T19:52:50.892Z,73.00
2018-11-07T19:55:20.492Z,73.10
2018-11-07T19:57:51.155Z,73.30
2018-11-07T20:00:19.287Z,73.40
2018-11-07T20:02:47.692Z,73.50
2018-11-07T20:05:15.925Z,73.60
2018-11-07T20:07:44.127Z,73.90
2018-11-07T20:10:18.199Z,73.80
2018-11-07T20:12:46.466Z,73.80
2018-11-07T20:15:15.816Z,74.00
2018-11-07T20:17:44.022Z,74.10
2018-11-07T20:20:12.675Z,74.40
2018-11-07T20:22:47.656Z,74.70
2018-11-07T20:25:16.161Z,74.90
2018-11-07T20:27:44.767Z,75.00
2018-11-07T20:30:16.467Z,75.10
2018-11-07T20:32:44.704Z,75.40
2018-11-07T20:35:14.923Z,75.50
2018-11-07T20:37:43.137Z,75.90
2018-11-07T20:40:12.935Z,76.20
2018-11-07T20:42:41.077Z,76.10
2018-11-07T20:45:10.306Z,76.00
2018-11-07T20:47:38.858Z,76.20
2018-11-07T20:50:09.587Z,76.50
2018-11-07T20:52:38.036Z,76.60
2018-11-07T20:55:07.323Z,76.70
2018-11-07T20:57:35.858Z,76.50
2018-11-07T21:00:04.447Z,76.80
2018-11-07T21:02:32.679Z,77.60
2018-11-07T21:05:01.018Z,77.10
2018-11-07T21:07:29.207Z,77.20
2018-11-07T21:09:57.372Z,77.30
2018-11-07T21:12:25.550Z,77.50
2018-11-07T21:14:53.679Z,77.60
2018-11-07T21:17:22.005Z,77.80
2018-11-07T21:19:50.150Z,77.80
2018-11-07T21:22:18.271Z,78.10
2018-11-07T21:24:46.458Z,78.40
2018-11-07T21:27:14.642Z,78.70
2018-11-07T21:29:42.786Z,78.60
2018-11-07T21:32:10.920Z,78.70
2018-11-07T21:34:39.160Z,78.90
2018-11-07T21:37:07.365Z,79.00
2018-11-07T21:39:35.527Z,79.10
2018-11-07T21:42:03.691Z,79.50
2018-11-07T21:44:31.834Z,79.30
2018-11-07T21:47:00.024Z,79.40
2018-11-07T21:49:28.184Z,79.50
2018-11-07T21:51:56.374Z,79.60
2018-11-07T21:54:24.510Z,79.80
2018-11-07T21:56:52.947Z,80.00
2018-11-07T21:59:21.109Z,80.20
2018-11-07T22:01:49.315Z,80.40
2018-11-07T22:04:17.592Z,80.40
2018-11-07T22:06:45.759Z,80.60
2018-11-07T22:09:13.963Z,80.80
2018-11-07T22:11:42.088Z,80.90
2018-11-07T22:14:10.249Z,81.20
2018-11-07T22:16:39.385Z,81.60
2018-11-07T22:19:08.246Z,81.70
2018-11-07T22:21:36.414Z,81.90
2018-11-07T22:24:04.731Z,81.80
2018-11-07T22:26:32.767Z,82.10
2018-11-07T22:29:00.882Z,82.40
2018-11-07T22:31:29.087Z,82.50
2018-11-07T22:33:57.207Z,82.70
2018-11-07T22:36:25.494Z,83.00
2018-11-07T22:38:53.653Z,82.90
2018-11-07T22:41:21.886Z,83.00
2018-11-07T22:43:50.041Z,83.00
2018-11-07T22:46:18.194Z,83.10
2018-11-07T22:48:46.339Z,83.30
2018-11-07T22:51:14.501Z,83.30
2018-11-07T22:53:42.638Z,83.50
2018-11-07T22:56:10.818Z,83.40
2018-11-07T22:58:38.975Z,83.60
2018-11-07T23:01:12.365Z,83.60
2018-11-07T23:03:40.902Z,83.80
2018-11-07T23:06:08.998Z,83.70
2018-11-07T23:08:37.125Z,83.80
2018-11-07T23:11:05.323Z,84.00
2018-11-07T23:13:33.452Z,84.10
2018-11-07T23:16:01.951Z,84.20
2018-11-07T23:18:30.132Z,84.20
2018-11-07T23:20:58.289Z,84.20
2018-11-07T23:23:26.446Z,84.40
2018-11-07T23:25:54.582Z,84.70
2018-11-07T23:28:22.698Z,84.90
2018-11-07T23:30:50.814Z,84.90
2018-11-07T23:33:18.977Z,84.80
2018-11-07T23:35:47.100Z,84.50
2018-11-07T23:38:15.257Z,84.40
2018-11-07T23:40:43.420Z,84.30
2018-11-07T23:43:11.539Z,84.30
2018-11-07T23:45:39.677Z,84.20
2018-11-07T23:48:07.848Z,84.20
2018-11-07T23:50:35.988Z,84.10
2018-11-07T23:53:04.188Z,84.10
2018-11-07T23:55:32.590Z,84.10
2018-11-07T23:58:00.712Z,83.90
